Time;durP1;ratioP1;P1;durP2;ratioP2;P2;SDS_P1;SDS_P2;PMS_P1;PMS_P2;Temp;Humidity;BMP_temperature;BMP_pressure;BME280_temperature;BME280_humidity;BME280_pressure;Samples;Min_cycle;Max_cycle;Signal;HPM_P1;HPM_P2
2021/12/23 00:01:03;;;;;;;11.33;8.90;;;-0.90;99.90;-1.90;100670;;;;561977;251;24091;-74
2021/12/23 00:03:31;;;;;;;14.03;10.77;;;-0.90;99.90;-1.90;100670;;;;570524;251;24116;-74
2021/12/23 00:05:59;;;;;;;12.57;9.50;;;-0.90;99.90;-1.90;100661;;;;570599;251;24075;-75
2021/12/23 00:08:27;;;;;;;9.70;8.67;;;-0.90;99.90;-1.90;100661;;;;570523;247;24094;-74
2021/12/23 00:10:55;;;;;;;7.80;6.63;;;-0.90;99.90;-1.90;100660;;;;570260;251;24080;-76
2021/12/23 00:13:23;;;;;;;9.47;7.87;;;-0.90;99.90;-1.90;100663;;;;570352;251;24082;-75
2021/12/23 00:18:44;;;;;;;9.37;8.30;;;-0.90;99.90;-1.90;100665;;;;567170;253;24127;-75
2021/12/23 00:23:44;;;;;;;10.93;8.93;;;-0.90;99.90;-1.90;100657;;;;567124;253;24178;-74
2021/12/23 00:26:12;;;;;;;8.57;7.53;;;-0.90;99.90;-1.90;100658;;;;570594;251;24104;-75
2021/12/23 00:28:43;;;;;;;7.43;6.67;;;-0.90;99.90;-1.90;100654;;;;570653;251;24171;-75
2021/12/23 00:31:08;;;;;;;7.95;5.75;;;-0.90;99.90;-1.90;100655;;;;565477;251;35705;-74
2021/12/23 00:33:40;;;;;;;4.37;2.43;;;-0.90;99.90;-1.90;100660;;;;559133;253;24160;-76
2021/12/23 00:36:05;;;;;;;3.47;0.80;;;-0.90;99.90;-1.90;100647;;;;561979;251;24113;-74
2021/12/23 00:38:37;;;;;;;8.03;4.20;;;-0.90;99.90;-1.90;100648;;;;558992;253;24109;-74
2021/12/23 00:41:03;;;;;;;10.03;7.23;;;-0.80;99.90;-1.90;100639;;;;561183;253;24109;-74
2021/12/23 00:43:33;;;;;;;12.23;9.57;;;-0.80;99.90;-1.90;100643;;;;547965;258;24086;-75
2021/12/23 00:46:03;;;;;;;12.80;10.03;;;-0.90;99.90;-1.90;100642;;;;563486;252;24142;-74
2021/12/23 00:48:30;;;;;;;12.47;10.00;;;-0.90;99.90;-1.90;100633;;;;561042;252;24130;-76
2021/12/23 00:50:58;;;;;;;16.67;12.27;;;-0.90;99.90;-1.90;100631;;;;559046;252;24181;-75
2021/12/23 00:53:32;;;;;;;7.83;6.67;;;-0.90;99.90;-1.90;100626;;;;550901;257;24120;-75
2021/12/23 00:55:56;;;;;;;11.77;8.60;;;-0.90;99.90;-1.90;100618;;;;550552;253;24151;-75
2021/12/23 00:58:24;;;;;;;7.13;6.40;;;-0.90;99.90;-1.90;100616;;;;550378;257;24136;-76
2021/12/23 01:00:54;;;;;;;8.50;7.60;;;-0.90;99.90;-1.90;100612;;;;550227;257;24150;-75
2021/12/23 01:03:24;;;;;;;8.33;7.23;;;-0.90;99.90;-1.90;100612;;;;565000;247;24081;-74
2021/12/23 01:05:49;;;;;;;13.20;10.37;;;-0.90;99.90;-1.90;100616;;;;584815;245;24064;-73
2021/12/23 01:08:19;;;;;;;12.77;9.63;;;-0.90;99.90;-1.90;100608;;;;585378;241;24045;-73
2021/12/23 01:10:48;;;;;;;14.20;10.37;;;-0.90;99.90;-1.90;100602;;;;573549;245;24113;-73
2021/12/23 01:13:14;;;;;;;13.50;9.90;;;-0.90;99.90;-1.90;100604;;;;563160;251;24147;-74
2021/12/23 01:15:58;;;;;;;9.07;7.47;;;-0.90;99.90;-1.90;100608;;;;572185;248;24090;-74
2021/12/23 01:18:13;;;;;;;11.63;8.40;;;-0.90;99.90;-1.90;100600;;;;562051;251;24083;-75
2021/12/23 01:20:36;;;;;;;10.33;8.17;;;-0.90;99.90;-1.90;100590;;;;558530;251;24079;-74
2021/12/23 01:23:04;;;;;;;9.17;7.40;;;-0.90;99.90;-1.90;100577;;;;562627;250;24016;-75
2021/12/23 01:25:32;;;;;;;8.83;7.87;;;-0.90;99.90;-1.90;100582;;;;557142;251;24110;-74
2021/12/23 01:28:00;;;;;;;8.20;7.03;;;-0.90;99.90;-1.90;100570;;;;564010;250;24106;-73
2021/12/23 01:30:31;;;;;;;6.67;5.97;;;-0.90;99.90;-1.90;100571;;;;574348;248;23986;-75
2021/12/23 01:32:56;;;;;;;6.80;6.10;;;-0.90;99.90;-1.90;100572;;;;565418;250;24068;-75
2021/12/23 01:35:24;;;;;;;5.33;4.67;;;-0.90;99.90;-1.90;100567;;;;569945;250;24151;-74
2021/12/23 01:37:56;;;;;;;7.53;5.87;;;-0.90;99.90;-1.90;100562;;;;561479;251;24161;-74
2021/12/23 01:40:24;;;;;;;8.10;6.83;;;-0.90;99.90;-1.90;100563;;;;559899;252;24181;-74
2021/12/23 01:42:48;;;;;;;7.90;6.90;;;-0.90;99.90;-1.90;100561;;;;561141;252;24135;-74
2021/12/23 01:45:19;;;;;;;7.03;6.23;;;-0.90;99.90;-1.90;100567;;;;564500;250;24138;-74
2021/12/23 01:47:49;;;;;;;6.27;5.60;;;-0.90;99.90;-1.90;100553;;;;559625;252;24150;-74
2021/12/23 01:50:15;;;;;;;5.53;4.97;;;-0.90;99.90;-1.90;100555;;;;569705;252;24110;-75
2021/12/23 01:52:42;;;;;;;8.47;5.57;;;-0.90;99.90;-1.90;100558;;;;559470;252;24132;-75
2021/12/23 01:55:11;;;;;;;7.27;6.43;;;-0.90;99.90;-1.90;100549;;;;560253;252;24141;-75
2021/12/23 01:57:42;;;;;;;5.10;4.60;;;-0.90;99.90;-1.90;100549;;;;561894;251;24198;-74
2021/12/23 02:00:10;;;;;;;9.83;7.30;;;-0.90;99.90;-1.90;100543;;;;562177;251;24165;-74
2021/12/23 02:02:41;;;;;;;7.63;5.57;;;-0.90;99.90;-1.90;100533;;;;561941;251;24112;-74
2021/12/23 02:05:06;;;;;;;7.50;6.13;;;-0.90;99.90;-1.90;100531;;;;560282;251;24131;-75
2021/12/23 02:07:34;;;;;;;9.13;7.90;;;-0.90;99.90;-1.90;100530;;;;561349;251;24146;-75
2021/12/23 02:10:02;;;;;;;7.07;5.77;;;-0.90;99.90;-1.90;100527;;;;564838;251;24121;-75
2021/12/23 02:12:29;;;;;;;8.23;6.70;;;-0.90;99.90;-1.90;100519;;;;569910;249;24175;-74
2021/12/23 02:14:57;;;;;;;13.87;10.20;;;-0.90;99.90;-1.90;100514;;;;564797;251;24103;-73
2021/12/23 02:17:25;;;;;;;11.50;8.97;;;-0.90;99.90;-1.90;100507;;;;561395;251;24099;-75
2021/12/23 02:19:53;;;;;;;8.10;7.30;;;-0.90;99.90;-1.90;100501;;;;564698;251;24135;-75
2021/12/23 02:22:21;;;;;;;10.63;8.30;;;-0.90;99.90;-1.90;100506;;;;569599;251;24115;-74
2021/12/23 02:24:49;;;;;;;10.83;8.40;;;-0.90;99.90;-1.90;100499;;;;570251;251;24128;-76
2021/12/23 02:27:17;;;;;;;6.93;6.20;;;-0.90;99.90;-1.90;100498;;;;564639;250;24147;-76
2021/12/23 02:29:45;;;;;;;7.27;5.80;;;-0.90;99.90;-1.90;100487;;;;564543;251;24125;-76
2021/12/23 02:32:13;;;;;;;10.20;8.30;;;-0.90;99.90;-1.90;100483;;;;564608;251;24103;-76
2021/12/23 02:34:41;;;;;;;6.87;6.17;;;-0.90;99.90;-1.90;100477;;;;564273;252;24107;-75
2021/12/23 02:37:09;;;;;;;8.27;7.03;;;-0.90;99.90;-1.90;100478;;;;564406;252;24099;-76
2021/12/23 02:39:36;;;;;;;7.90;7.10;;;-0.90;99.90;-1.90;100473;;;;564277;252;24143;-75
2021/12/23 02:42:05;;;;;;;6.60;5.93;;;-0.90;99.90;-2.00;100469;;;;564298;252;24257;-75
2021/12/23 02:44:35;;;;;;;11.07;7.90;;;-0.90;99.90;-2.00;100473;;;;561166;252;24103;-76
2021/12/23 02:47:00;;;;;;;11.03;8.13;;;-0.90;99.90;-2.00;100471;;;;563945;251;24131;-75
2021/12/23 02:49:28;;;;;;;11.40;8.83;;;-0.90;99.90;-2.00;100461;;;;560004;252;24176;-76
2021/12/23 02:51:56;;;;;;;7.77;6.97;;;-0.90;99.90;-2.00;100457;;;;564269;252;24133;-76
2021/12/23 02:54:24;;;;;;;9.23;7.77;;;-0.90;99.90;-2.00;100452;;;;564619;252;24161;-76
2021/12/23 02:56:52;;;;;;;7.57;6.23;;;-0.90;99.90;-2.00;100457;;;;564363;252;24114;-76
2021/12/23 02:59:20;;;;;;;7.17;5.17;;;-1.00;99.90;-2.00;100450;;;;561058;252;24122;-75
2021/12/23 03:01:48;;;;;;;6.77;5.90;;;-1.00;99.90;-2.00;100445;;;;564386;252;24087;-75
2021/12/23 03:04:16;;;;;;;5.70;5.13;;;-1.00;99.90;-2.00;100425;;;;564291;252;24148;-75
2021/12/23 03:06:44;;;;;;;6.50;5.87;;;-1.00;99.90;-2.00;100426;;;;564364;247;24099;-75
2021/12/23 03:09:13;;;;;;;9.33;7.93;;;-1.00;99.90;-2.00;100427;;;;551506;256;25195;-76
2021/12/23 03:11:41;;;;;;;9.53;8.10;;;-1.00;99.90;-2.00;100427;;;;560621;254;24167;-76
2021/12/23 03:14:11;;;;;;;6.93;6.03;;;-1.00;99.90;-2.00;100422;;;;550475;257;24152;-76
2021/12/23 03:16:38;;;;;;;10.07;8.63;;;-1.00;99.90;-2.00;100408;;;;567386;248;23983;-76
2021/12/23 03:19:05;;;;;;;7.37;6.67;;;-1.00;99.90;-2.10;100406;;;;574856;248;24027;-76
2021/12/23 03:21:33;;;;;;;8.40;6.57;;;-1.00;99.90;-2.10;100407;;;;560804;250;23999;-76
2021/12/23 03:24:01;;;;;;;7.63;6.73;;;-1.00;99.90;-2.10;100399;;;;566298;250;24001;-75
2021/12/23 03:26:30;;;;;;;10.77;8.13;;;-1.10;99.90;-2.10;100391;;;;566161;250;23999;-75
2021/12/23 03:28:59;;;;;;;10.80;8.40;;;-1.10;99.90;-2.10;100400;;;;565833;250;24012;-74
2021/12/23 03:31:27;;;;;;;9.73;8.40;;;-1.10;99.90;-2.10;100394;;;;565786;250;25038;-75
2021/12/23 03:33:55;;;;;;;9.93;7.93;;;-1.10;99.90;-2.10;100388;;;;565745;250;24007;-75
2021/12/23 03:36:23;;;;;;;10.20;8.60;;;-1.10;99.90;-2.10;100381;;;;565793;250;24010;-75
2021/12/23 03:38:51;;;;;;;6.30;5.67;;;-1.10;99.90;-2.10;100376;;;;565657;250;24000;-75
2021/12/23 03:41:19;;;;;;;7.47;6.40;;;-1.10;99.90;-2.10;100380;;;;565603;250;23974;-74
2021/12/23 03:43:50;;;;;;;8.60;7.70;;;-1.10;99.90;-2.20;100363;;;;565682;250;24036;-74
2021/12/23 03:46:15;;;;;;;10.70;9.10;;;-1.10;99.90;-2.10;100366;;;;573621;250;24050;-74
2021/12/23 03:48:43;;;;;;;9.07;8.13;;;-1.10;99.90;-2.20;100378;;;;565485;250;23978;-74
2021/12/23 03:51:11;;;;;;;7.97;6.97;;;-1.10;99.90;-2.20;100371;;;;565363;250;24003;-74
2021/12/23 03:53:38;;;;;;;10.07;7.33;;;-1.10;99.90;-2.20;100359;;;;565533;250;24000;-76
2021/12/23 03:56:10;;;;;;;6.90;6.00;;;-1.20;99.90;-2.20;100352;;;;565479;250;25031;-76
2021/12/23 03:58:35;;;;;;;7.37;6.23;;;-1.20;99.90;-2.20;100351;;;;565033;250;24027;-76
2021/12/23 04:01:06;;;;;;;8.53;7.57;;;-1.20;99.90;-2.20;100354;;;;565337;250;24065;-75
2021/12/23 04:03:32;;;;;;;9.23;7.00;;;-1.20;99.90;-2.20;100345;;;;564879;250;24057;-75
2021/12/23 04:06:00;;;;;;;12.13;8.90;;;-1.20;99.90;-2.20;100343;;;;565485;250;24009;-76
2021/12/23 04:08:28;;;;;;;11.97;10.00;;;-1.20;99.90;-2.20;100348;;;;565411;250;24004;-76
2021/12/23 04:10:58;;;;;;;11.10;8.83;;;-1.20;99.90;-2.20;100350;;;;565715;250;24045;-75
2021/12/23 04:13:23;;;;;;;9.40;8.20;;;-1.20;99.90;-2.20;100344;;;;565400;250;23982;-75
2021/12/23 04:15:51;;;;;;;10.17;7.90;;;-1.20;99.90;-2.30;100336;;;;565407;250;24185;-75
2021/12/23 04:18:19;;;;;;;10.27;9.00;;;-1.20;99.90;-2.30;100338;;;;565445;250;23978;-75
2021/12/23 04:20:57;;;;;;;10.20;8.70;;;-1.20;99.90;-2.30;100337;;;;566213;249;23988;-75
2021/12/23 04:23:15;;;;;;;11.17;9.13;;;-1.20;99.90;-2.30;100333;;;;566284;249;24006;-75
2021/12/23 04:25:43;;;;;;;10.33;7.43;;;-1.30;99.90;-2.30;100335;;;;566396;250;24020;-75
2021/12/23 04:28:11;;;;;;;11.20;8.80;;;-1.30;99.90;-2.30;100331;;;;566574;250;25032;-75
2021/12/23 04:30:39;;;;;;;12.23;9.47;;;-1.30;99.90;-2.30;100314;;;;566388;250;23989;-74
2021/12/23 04:33:07;;;;;;;12.47;10.03;;;-1.30;99.90;-2.30;100310;;;;566343;250;24019;-75
2021/12/23 04:35:35;;;;;;;11.83;9.90;;;-1.30;99.90;-2.30;100317;;;;565272;251;24063;-75
2021/12/23 04:38:03;;;;;;;11.47;8.70;;;-1.30;99.90;-2.30;100313;;;;565176;251;24081;-75
2021/12/23 04:40:31;;;;;;;14.50;10.90;;;-1.30;99.90;-2.30;100314;;;;563864;251;24139;-75
2021/12/23 04:42:58;;;;;;;10.70;9.43;;;-1.30;99.90;-2.30;100319;;;;550633;257;24135;-75
2021/12/23 04:45:26;;;;;;;9.23;8.10;;;-1.30;99.90;-2.30;100317;;;;553984;257;24248;-75
2021/12/23 04:47:54;;;;;;;12.07;9.63;;;-1.30;99.90;-2.30;100308;;;;554011;257;24144;-75
2021/12/23 04:50:25;;;;;;;11.37;10.03;;;-1.30;99.90;-2.40;100309;;;;547949;258;24033;-75
2021/12/23 04:52:51;;;;;;;10.37;8.23;;;-1.30;99.90;-2.40;100305;;;;559988;252;24122;-74
2021/12/23 04:55:18;;;;;;;11.23;8.47;;;-1.40;99.90;-2.40;100297;;;;559080;252;24147;-75
2021/12/23 04:57:46;;;;;;;7.37;6.20;;;-1.40;99.90;-2.40;100298;;;;562811;252;24155;-74
2021/12/23 05:00:14;;;;;;;7.57;6.77;;;-1.40;99.90;-2.40;100294;;;;560088;252;24192;-75
2021/12/23 05:02:42;;;;;;;13.10;9.93;;;-1.40;99.90;-2.40;100289;;;;563576;252;24175;-76
2021/12/23 05:05:10;;;;;;;10.93;8.50;;;-1.40;99.90;-2.40;100282;;;;563801;252;24134;-74
2021/12/23 05:07:38;;;;;;;10.73;8.97;;;-1.40;99.90;-2.40;100276;;;;568090;252;24173;-74
2021/12/23 05:10:06;;;;;;;14.53;10.03;;;-1.40;99.90;-2.40;100271;;;;559583;252;24167;-73
2021/12/23 05:12:41;;;;;;;11.87;9.87;;;-1.40;99.90;-2.40;100282;;;;567150;250;24121;-74
2021/12/23 05:15:01;;;;;;;10.63;9.23;;;-1.40;99.90;-2.40;100276;;;;561718;252;24108;-74
2021/12/23 05:17:29;;;;;;;9.07;7.63;;;-1.40;99.90;-2.40;100261;;;;562445;252;24174;-75
2021/12/23 05:19:57;;;;;;;9.93;8.17;;;-1.40;99.90;-2.40;100267;;;;564256;250;24123;-75
2021/12/23 05:22:25;;;;;;;9.67;7.47;;;-1.40;99.90;-2.40;100258;;;;561268;251;24113;-74
2021/12/23 05:24:54;;;;;;;9.13;8.10;;;-1.40;99.90;-2.40;100250;;;;561224;252;24111;-74
2021/12/23 05:27:22;;;;;;;10.37;8.90;;;-1.40;99.90;-2.40;100253;;;;561144;252;24113;-74
2021/12/23 05:29:50;;;;;;;12.70;10.37;;;-1.40;99.90;-2.40;100242;;;;561581;252;25149;-75
2021/12/23 05:32:18;;;;;;;11.40;10.07;;;-1.30;99.90;-2.40;100238;;;;562219;251;25226;-74
2021/12/23 05:34:46;;;;;;;10.97;7.50;;;-1.30;99.90;-2.30;100242;;;;562716;251;24110;-74
2021/12/23 05:37:13;;;;;;;13.33;10.80;;;-1.40;99.90;-2.40;100238;;;;562367;251;24102;-74
2021/12/23 05:39:41;;;;;;;17.83;13.30;;;-1.30;99.90;-2.30;100233;;;;562278;251;24138;-75
2021/12/23 05:42:10;;;;;;;15.03;10.63;;;-1.30;99.90;-2.30;100228;;;;562164;251;24118;-74
2021/12/23 05:44:38;;;;;;;14.10;10.73;;;-1.30;99.90;-2.30;100222;;;;562076;251;24138;-74
2021/12/23 05:47:06;;;;;;;12.27;9.07;;;-1.30;99.90;-2.30;100219;;;;560575;251;24120;-74
2021/12/23 05:49:35;;;;;;;13.00;10.17;;;-1.30;99.90;-2.30;100217;;;;562068;251;24101;-74
2021/12/23 05:52:02;;;;;;;18.47;12.00;;;-1.40;99.90;-2.40;100199;;;;561808;251;24130;-74
2021/12/23 05:54:30;;;;;;;11.47;9.97;;;-1.40;99.90;-2.40;100198;;;;561867;251;24106;-75
2021/12/23 05:57:02;;;;;;;13.57;10.83;;;-1.40;99.90;-2.40;100192;;;;561798;251;24160;-75
2021/12/23 05:59:26;;;;;;;11.93;9.23;;;-1.40;99.90;-2.40;100186;;;;561554;251;24168;-75
2021/12/23 06:01:54;;;;;;;14.87;11.33;;;-1.40;99.90;-2.40;100181;;;;561736;251;24086;-75
2021/12/23 06:04:22;;;;;;;10.03;8.23;;;-1.40;99.90;-2.40;100187;;;;570003;249;24107;-75
2021/12/23 06:06:50;;;;;;;11.53;8.90;;;-1.40;99.90;-2.40;100190;;;;561491;251;24168;-75
2021/12/23 06:09:18;;;;;;;13.07;10.10;;;-1.40;99.90;-2.40;100175;;;;561261;252;24126;-75
2021/12/23 06:11:46;;;;;;;13.87;10.80;;;-1.40;99.90;-2.40;100184;;;;561400;252;24122;-75
2021/12/23 06:14:14;;;;;;;12.87;9.90;;;-1.40;99.90;-2.40;100169;;;;561308;252;24110;-75
2021/12/23 06:16:42;;;;;;;13.50;8.35;;;-1.40;99.90;-2.40;100171;;;;556417;252;35514;-76
2021/12/23 06:19:13;;;;;;;6.77;3.93;;;-1.40;99.90;-2.40;100175;;;;561140;252;24145;-75
2021/12/23 06:21:37;;;;;;;5.03;2.43;;;-1.40;99.90;-2.40;100174;;;;559809;252;24125;-75
2021/12/23 06:24:06;;;;;;;2.73;1.10;;;-1.40;99.90;-2.40;100177;;;;561198;252;24113;-75
2021/12/23 06:26:33;;;;;;;8.07;7.07;;;-1.40;99.90;-2.40;100172;;;;569458;252;24111;-75
2021/12/23 06:29:01;;;;;;;11.80;8.97;;;-1.40;99.90;-2.40;100172;;;;559257;252;24128;-75
2021/12/23 06:31:29;;;;;;;13.97;10.60;;;-1.40;99.90;-2.40;100167;;;;561939;252;24168;-75
2021/12/23 06:33:57;;;;;;;12.13;9.80;;;-1.40;99.90;-2.40;100161;;;;560038;252;25153;-75
2021/12/23 06:36:25;;;;;;;14.00;10.50;;;-1.40;99.90;-2.40;100162;;;;564457;252;24121;-75
2021/12/23 06:38:53;;;;;;;13.57;11.10;;;-1.40;99.90;-2.40;100160;;;;561451;252;24165;-75
2021/12/23 06:41:21;;;;;;;8.03;6.63;;;-1.40;99.90;-2.40;100158;;;;562774;252;24126;-75
2021/12/23 06:43:49;;;;;;;12.30;8.90;;;-1.40;99.90;-2.40;100158;;;;563414;251;25142;-75
2021/12/23 06:46:17;;;;;;;10.07;8.47;;;-1.40;99.90;-2.40;100165;;;;563906;252;24139;-75
2021/12/23 06:48:45;;;;;;;8.57;7.73;;;-1.40;99.90;-2.40;100164;;;;559679;252;24118;-75
2021/12/23 06:51:12;;;;;;;10.68;6.53;;;-1.40;99.90;-2.50;100149;;;;558538;252;35528;-75
2021/12/23 06:53:43;;;;;;;6.97;3.77;;;-1.40;99.90;-2.40;100146;;;;563335;252;24121;-75
2021/12/23 06:56:11;;;;;;;7.20;3.73;;;-1.40;99.90;-2.40;100140;;;;559132;252;24144;-75
2021/12/23 06:58:39;;;;;;;4.33;1.37;;;-1.40;99.90;-2.40;100146;;;;563133;252;25155;-75
2021/12/23 07:01:06;;;;;;;15.53;10.00;;;-1.40;99.90;-2.40;100142;;;;563151;252;25157;-73
2021/12/23 07:04:02;;;;;;;17.17;12.73;;;-1.40;99.90;-2.40;100145;;;;560345;252;24122;-73
2021/12/23 07:06:07;;;;;;;13.20;10.60;;;-1.40;99.90;-2.40;100145;;;;557986;252;24144;-74
2021/12/23 07:08:36;;;;;;;12.57;10.60;;;-1.40;99.90;-2.40;100138;;;;559977;252;24207;-74
2021/12/23 07:11:01;;;;;;;11.47;9.33;;;-1.40;99.90;-2.40;100133;;;;559819;252;24147;-73
2021/12/23 07:13:29;;;;;;;14.23;11.17;;;-1.40;99.90;-2.40;100142;;;;560650;256;24136;-73
2021/12/23 07:16:00;;;;;;;16.70;12.23;;;-1.40;99.90;-2.40;100128;;;;550534;257;24169;-73
2021/12/23 07:18:25;;;;;;;11.40;9.57;;;-1.40;99.90;-2.40;100120;;;;550099;257;24168;-74
2021/12/23 07:20:53;;;;;;;14.70;10.53;;;-1.40;99.90;-2.40;100118;;;;550266;257;24171;-75
2021/12/23 07:23:21;;;;;;;13.03;11.00;;;-1.40;99.90;-2.40;100123;;;;550107;257;24188;-74
2021/12/23 07:25:48;;;;;;;15.20;11.37;;;-1.40;99.90;-2.40;100113;;;;549984;257;24198;-75
2021/12/23 07:28:16;;;;;;;14.03;11.50;;;-1.40;99.90;-2.40;100124;;;;550120;257;24159;-75
2021/12/23 07:30:44;;;;;;;15.27;11.33;;;-1.40;99.90;-2.40;100123;;;;550085;257;24190;-74
2021/12/23 07:33:12;;;;;;;18.57;13.47;;;-1.30;99.90;-2.40;100116;;;;550480;257;24143;-74
2021/12/23 07:35:40;;;;;;;11.33;8.50;;;-1.30;99.90;-2.30;100129;;;;550491;257;24131;-74
2021/12/23 07:38:08;;;;;;;13.30;9.83;;;-1.30;99.90;-2.30;100125;;;;550361;257;24158;-74
2021/12/23 07:40:36;;;;;;;10.80;8.80;;;-1.30;99.90;-2.30;100114;;;;562648;248;24168;-74
2021/12/23 07:43:21;;;;;;;16.40;11.60;;;-1.30;99.90;-2.30;100120;;;;562732;252;24130;-74
2021/12/23 07:45:38;;;;;;;12.37;10.27;;;-1.20;99.90;-2.30;100110;;;;559138;252;25225;-75
2021/12/23 07:48:06;;;;;;;14.00;10.83;;;-1.20;99.90;-2.20;100104;;;;558126;252;24104;-74
2021/12/23 07:50:34;;;;;;;13.37;10.23;;;-1.20;99.90;-2.20;100102;;;;562758;252;24129;-73
2021/12/23 07:53:02;;;;;;;14.00;10.97;;;-1.10;99.90;-2.20;100096;;;;560055;252;24176;-74
2021/12/23 07:55:31;;;;;;;10.90;9.43;;;-1.10;99.90;-2.20;100099;;;;560805;252;24151;-74
2021/12/23 07:58:00;;;;;;;9.63;7.33;;;-1.00;99.90;-2.10;100096;;;;563862;252;24132;-75
2021/12/23 08:00:29;;;;;;;11.80;9.30;;;-1.10;99.90;-2.00;100099;;;;563561;252;24131;-73
2021/12/23 08:02:57;;;;;;;13.50;10.13;;;-1.00;99.90;-2.00;100088;;;;563406;252;24115;-75
2021/12/23 08:05:23;;;;;;;9.80;8.03;;;-0.90;99.90;-1.90;100099;;;;563188;250;24112;-74
2021/12/23 08:07:53;;;;;;;9.23;7.93;;;-0.80;99.90;-1.80;100090;;;;560244;252;24185;-74
2021/12/23 08:10:19;;;;;;;6.47;5.83;;;-0.80;99.90;-1.80;100089;;;;562772;252;24213;-73
2021/12/23 08:12:47;;;;;;;5.33;4.87;;;-0.70;99.90;-1.70;100093;;;;562753;252;24134;-74
2021/12/23 08:15:15;;;;;;;4.83;4.27;;;-0.60;99.90;-1.70;100092;;;;562659;252;24121;-74
2021/12/23 08:17:46;;;;;;;6.90;6.20;;;-0.60;99.90;-1.60;100088;;;;562586;252;25165;-75
2021/12/23 08:20:11;;;;;;;9.70;8.17;;;-0.50;99.90;-1.60;100085;;;;559900;252;24137;-75
2021/12/23 08:22:39;;;;;;;4.70;4.30;;;-0.50;99.90;-1.60;100083;;;;561222;251;24129;-75
2021/12/23 08:25:11;;;;;;;4.50;4.10;;;-0.50;99.90;-1.50;100086;;;;566295;251;24201;-75
2021/12/23 08:27:35;;;;;;;4.17;3.87;;;-0.40;99.90;-1.50;100063;;;;560941;251;24111;-75
2021/12/23 08:30:03;;;;;;;3.63;1.67;;;-0.40;99.90;-1.50;100062;;;;565227;252;24139;-75
2021/12/23 08:32:31;;;;;;;3.03;2.27;;;-0.40;99.90;-1.40;100061;;;;560894;250;24162;-74
2021/12/23 08:34:59;;;;;;;2.90;1.93;;;-0.30;99.90;-1.40;100068;;;;569030;252;24157;-75
2021/12/23 08:37:27;;;;;;;4.27;2.70;;;-0.30;99.90;-1.30;100064;;;;569280;252;24151;-76
2021/12/23 08:39:55;;;;;;;5.67;1.10;;;-0.20;99.90;-1.20;100060;;;;569266;252;24127;-75
2021/12/23 08:42:26;;;;;;;4.63;2.87;;;-0.10;99.90;-1.20;100057;;;;569278;252;24154;-74
2021/12/23 08:44:51;;;;;;;4.33;2.00;;;-0.10;99.90;-1.10;100049;;;;560453;252;24150;-75
2021/12/23 08:47:20;;;;;;;3.53;1.63;;;0.00;99.90;-1.10;100053;;;;569318;247;24149;-75
2021/12/23 08:49:47;;;;;;;4.23;2.97;;;0.00;99.90;-1.10;100053;;;;560986;252;24115;-74
2021/12/23 08:52:15;;;;;;;3.43;2.07;;;0.00;99.90;-1.00;100042;;;;560760;252;24154;-73
2021/12/23 08:54:43;;;;;;;2.20;1.10;;;0.10;99.90;-1.00;100040;;;;560871;252;24151;-73
2021/12/23 08:57:11;;;;;;;9.00;6.55;;;0.10;99.90;-1.00;100033;;;;555966;252;35437;-75
2021/12/23 08:59:43;;;;;;;1.60;1.30;;;0.20;99.90;-0.90;100023;;;;560925;252;24100;-75
2021/12/23 09:02:07;;;;;;;3.63;2.30;;;0.20;99.90;-0.90;100024;;;;568914;252;24134;-74
2021/12/23 09:04:38;;;;;;;3.87;2.67;;;0.30;99.90;-0.80;100019;;;;560981;252;24117;-73
2021/12/23 09:07:06;;;;;;;5.70;3.47;;;0.40;99.90;-0.80;100022;;;;559882;251;24182;-74
2021/12/23 09:09:33;;;;;;;2.63;1.80;;;0.40;99.90;-0.80;100011;;;;570641;251;24185;-73
2021/12/23 09:11:59;;;;;;;3.37;2.57;;;0.40;99.90;-0.70;100006;;;;562067;253;24152;-74
2021/12/23 09:14:29;;;;;;;2.97;1.70;;;0.40;99.90;-0.70;100004;;;;566507;250;24104;-73
2021/12/23 09:16:54;;;;;;;5.57;3.17;;;0.50;99.90;-0.70;99999;;;;559398;253;24116;-74
2021/12/23 09:19:22;;;;;;;5.77;3.37;;;0.50;99.90;-0.70;100004;;;;559646;253;24116;-75
2021/12/23 09:21:50;;;;;;;3.70;2.20;;;0.50;99.90;-0.70;100006;;;;559571;253;24097;-75
2021/12/23 09:24:19;;;;;;;2.33;1.63;;;0.50;99.90;-0.60;99996;;;;559491;253;24101;-74
2021/12/23 09:26:57;;;;;;;4.37;2.43;;;0.60;99.90;-0.60;99991;;;;559283;253;24127;-74
2021/12/23 09:32:39;;;;;;;3.47;2.20;;;0.60;99.90;-0.60;99979;;;;569566;251;24133;-75
2021/12/23 09:34:29;;;;;;;5.53;2.70;;;0.60;99.90;-0.60;99998;;;;570225;251;24112;-74
2021/12/23 09:36:57;;;;;;;6.90;2.80;;;0.60;99.90;-0.60;99988;;;;561475;251;24133;-74
2021/12/23 09:39:27;;;;;;;3.60;2.20;;;0.60;99.90;-0.60;99981;;;;561369;251;24166;-75
2021/12/23 09:41:52;;;;;;;4.53;2.23;;;0.60;99.90;-0.60;99983;;;;561452;251;24119;-74
2021/12/23 09:44:20;;;;;;;2.07;1.77;;;0.60;99.90;-0.60;99972;;;;561182;252;24104;-73
2021/12/23 09:46:48;;;;;;;2.93;1.70;;;0.60;99.90;-0.60;99980;;;;561330;252;24168;-74
2021/12/23 09:49:20;;;;;;;1.83;1.30;;;0.60;99.90;-0.50;99959;;;;561194;252;24139;-73
2021/12/23 09:51:47;;;;;;;5.10;2.90;;;0.60;99.90;-0.50;99959;;;;565362;251;24151;-74
2021/12/23 09:54:15;;;;;;;8.07;2.93;;;0.70;99.90;-0.50;99954;;;;561209;252;24254;-74
2021/12/23 09:56:40;;;;;;;1.30;0.80;;;0.70;99.90;-0.50;99959;;;;565436;250;24114;-73
2021/12/23 09:59:09;;;;;;;4.47;3.33;;;0.70;99.90;-0.50;99947;;;;561202;252;24106;-74
2021/12/23 10:01:37;;;;;;;5.47;1.87;;;0.70;99.90;-0.50;99941;;;;561149;252;24114;-74
2021/12/23 10:04:05;;;;;;;2.47;2.00;;;0.70;99.90;-0.50;99931;;;;565506;250;24484;-73
2021/12/23 10:06:34;;;;;;;4.40;3.03;;;0.70;99.90;-0.50;99934;;;;561184;247;24115;-74
2021/12/23 10:09:02;;;;;;;4.97;1.67;;;0.70;99.90;-0.40;99920;;;;561515;252;25137;-73
2021/12/23 10:11:55;;;;;;;3.50;1.60;;;0.80;99.90;-0.40;99925;;;;569654;252;25196;-74
2021/12/23 10:30:49;;;;;;;2.70;2.17;;;0.90;99.90;-0.40;99884;;;;570049;251;24188;-77
2021/12/23 10:38:24;;;;;;;3.80;3.00;;;0.90;99.90;-0.30;99855;;;;560605;251;24095;-74
2021/12/23 10:40:51;;;;;;;1.43;1.33;;;0.90;99.90;-0.30;99850;;;;561510;251;24138;-76
2021/12/23 10:43:25;;;;;;;3.30;1.77;;;0.90;99.90;-0.30;99841;;;;561607;251;24117;-73
2021/12/23 10:45:56;;;;;;;2.17;1.93;;;0.90;99.90;-0.30;99844;;;;561832;249;24170;-74
2021/12/23 10:48:22;;;;;;;4.23;3.03;;;1.00;99.90;-0.30;99823;;;;561713;251;24120;-75
2021/12/23 10:50:57;;;;;;;7.37;3.27;;;1.00;99.90;-0.30;99823;;;;569606;251;24130;-73
2021/12/23 10:59:04;;;;;;;3.33;1.70;;;0.90;99.90;-0.30;99808;;;;564887;252;24154;-76
2021/12/23 11:01:29;;;;;;;7.70;5.27;;;1.00;99.90;-0.30;99809;;;;560937;252;24145;-76
2021/12/23 11:04:05;;;;;;;3.30;1.63;;;1.00;99.90;-0.30;99807;;;;569594;249;24132;-75
2021/12/23 11:06:41;;;;;;;8.93;4.90;;;1.00;99.90;-0.30;99800;;;;561358;247;24128;-75
2021/12/23 11:12:00;;;;;;;12.90;8.77;;;0.90;99.90;-0.40;99796;;;;551165;255;35675;-76
2021/12/23 11:41:52;;;;;;;4.23;2.30;;;0.50;99.90;-0.60;99752;;;;551754;256;24147;-76
2021/12/23 11:44:16;;;;;;;8.57;2.80;;;0.50;99.90;-0.60;99744;;;;559687;256;24187;-75
2021/12/23 11:46:54;;;;;;;5.50;2.20;;;0.40;99.90;-0.70;99740;;;;549980;256;24223;-73
2021/12/23 11:49:18;;;;;;;10.17;6.10;;;0.40;99.90;-0.70;99737;;;;551932;256;24158;-72
2021/12/23 11:51:53;;;;;;;8.57;5.07;;;0.40;99.90;-0.70;99735;;;;549716;256;24168;-73
2021/12/23 11:54:13;;;;;;;5.60;3.77;;;0.40;99.90;-0.70;99733;;;;551461;253;25201;-73
2021/12/23 11:56:44;;;;;;;2.13;1.87;;;0.40;99.90;-0.70;99721;;;;551042;255;24247;-73
2021/12/23 11:59:16;;;;;;;7.33;3.43;;;0.40;99.90;-0.70;99724;;;;551359;256;24133;-72
2021/12/23 12:01:40;;;;;;;8.07;4.43;;;0.40;99.90;-0.70;99721;;;;551374;256;24150;-73
2021/12/23 12:04:08;;;;;;;4.30;2.00;;;0.40;99.90;-0.70;99713;;;;550956;256;24182;-75
2021/12/23 12:06:45;;;;;;;8.03;5.23;;;0.40;99.90;-0.70;99705;;;;551309;256;24164;-71
2021/12/23 12:09:26;;;;;;;5.40;2.67;;;0.40;99.90;-0.70;99698;;;;551162;256;24155;-73
2021/12/23 12:12:11;;;;;;;5.63;3.30;;;0.40;99.90;-0.70;99707;;;;549818;256;24152;-73
2021/12/23 12:14:41;;;;;;;8.97;3.83;;;0.40;99.90;-0.70;99709;;;;551075;256;24210;-73
2021/12/23 12:17:30;;;;;;;7.23;3.20;;;0.40;99.90;-0.70;99697;;;;559404;253;24168;-73